createdAt,value
2023-03-22T00:01:14.721Z,2.30
2023-03-22T00:03:41.573Z,2.40
2023-03-22T00:06:08.327Z,2.13
2023-03-22T00:08:35.156Z,3.25
2023-03-22T00:11:01.912Z,2.50
2023-03-22T00:13:28.220Z,3.13
2023-03-22T00:15:59.559Z,2.92
2023-03-22T00:18:26.344Z,2.80
2023-03-22T00:20:54.892Z,2.75
2023-03-22T00:23:21.782Z,3.22
2023-03-22T00:25:48.195Z,3.90
2023-03-22T00:28:15.004Z,3.22
2023-03-22T00:30:41.689Z,3.60
2023-03-22T00:33:08.440Z,2.90
2023-03-22T00:35:35.608Z,2.85
2023-03-22T00:38:14.392Z,3.33
2023-03-22T00:40:42.199Z,3.40
2023-03-22T00:43:08.620Z,3.85
2023-03-22T00:45:40.696Z,2.90
2023-03-22T00:48:11.698Z,2.38
2023-03-22T00:50:38.870Z,2.97
2023-03-22T00:53:05.857Z,2.67
2023-03-22T00:55:32.659Z,3.10
2023-03-22T00:57:59.160Z,3.13
2023-03-22T01:00:25.588Z,2.60
2023-03-22T01:02:59.598Z,2.70
2023-03-22T01:05:28.247Z,2.95
2023-03-22T01:07:55.145Z,2.92
2023-03-22T01:10:21.621Z,2.55
2023-03-22T01:12:48.177Z,2.72
2023-03-22T01:15:14.685Z,2.65
2023-03-22T01:17:41.094Z,3.70
2023-03-22T01:20:07.929Z,2.95
2023-03-22T01:22:34.268Z,3.50
2023-03-22T01:25:00.650Z,2.70
2023-03-22T01:27:27.037Z,2.60
2023-03-22T01:29:53.410Z,3.60
2023-03-22T01:32:20.161Z,2.53
2023-03-22T01:34:47.030Z,3.08
2023-03-22T01:37:14.629Z,3.08
2023-03-22T01:39:44.892Z,2.35
2023-03-22T01:42:14.420Z,2.97
2023-03-22T01:44:42.515Z,2.35
2023-03-22T01:47:10.737Z,2.92
2023-03-22T01:49:37.562Z,2.88
2023-03-22T01:52:06.881Z,2.35
2023-03-22T01:54:54.615Z,2.97
2023-03-22T01:57:33.413Z,3.10
2023-03-22T02:00:00.718Z,2.45
2023-03-22T02:02:40.117Z,2.50
2023-03-22T02:05:17.695Z,2.90
2023-03-22T02:07:44.139Z,3.78
2023-03-22T02:10:15.701Z,2.83
2023-03-22T02:13:03.052Z,2.53
2023-03-22T02:16:02.354Z,2.53
2023-03-22T02:19:04.525Z,2.70
2023-03-22T02:21:31.046Z,3.22
2023-03-22T02:24:16.531Z,2.70
2023-03-22T02:27:02.868Z,2.90
2023-03-22T02:29:35.448Z,3.08
2023-03-22T02:32:14.000Z,2.78
2023-03-22T02:34:58.778Z,3.60
2023-03-22T02:37:48.582Z,2.70
2023-03-22T02:40:17.159Z,3.53
2023-03-22T02:43:01.668Z,3.65
2023-03-22T02:45:34.863Z,4.10
2023-03-22T02:48:06.659Z,3.85
2023-03-22T02:50:32.987Z,3.57
2023-03-22T02:53:17.731Z,5.00
2023-03-22T02:55:59.142Z,5.07
2023-03-22T02:58:46.709Z,5.60
2023-03-22T03:01:18.697Z,6.18
2023-03-22T03:03:48.164Z,6.63
2023-03-22T03:06:16.926Z,5.70
2023-03-22T03:08:43.988Z,6.85
2023-03-22T03:11:11.069Z,7.07
2023-03-22T03:13:37.515Z,7.45
2023-03-22T03:16:07.707Z,7.10
2023-03-22T03:18:54.524Z,8.43
2023-03-22T03:21:30.295Z,7.88
2023-03-22T03:24:03.054Z,8.82
2023-03-22T03:26:35.492Z,9.23
2023-03-22T03:29:07.917Z,9.70
2023-03-22T03:31:37.854Z,9.30
2023-03-22T03:34:06.964Z,10.13
2023-03-22T03:36:37.621Z,9.98
2023-03-22T03:39:05.853Z,9.75
2023-03-22T03:41:32.354Z,11.50
2023-03-22T03:43:59.297Z,11.70
2023-03-22T03:46:26.040Z,10.80
2023-03-22T03:48:55.735Z,10.95
2023-03-22T03:51:22.118Z,10.48
2023-03-22T03:53:48.818Z,11.32
2023-03-22T03:56:15.835Z,11.40
2023-03-22T03:58:45.463Z,13.73
2023-03-22T04:01:14.442Z,10.57
2023-03-22T04:03:55.564Z,11.02
2023-03-22T04:06:34.972Z,11.38
2023-03-22T04:09:08.621Z,11.77
2023-03-22T04:11:39.751Z,11.00
2023-03-22T04:14:06.616Z,11.55
2023-03-22T04:16:33.426Z,13.38
2023-03-22T04:19:00.900Z,11.52
2023-03-22T04:21:27.484Z,11.57
2023-03-22T04:23:58.500Z,10.32
2023-03-22T04:26:26.909Z,10.48
2023-03-22T04:29:22.979Z,12.00
2023-03-22T04:31:54.172Z,10.02
2023-03-22T04:34:28.510Z,11.02
2023-03-22T04:36:57.555Z,10.25
2023-03-22T04:39:31.833Z,10.13
2023-03-22T04:42:24.761Z,10.93
2023-03-22T04:45:01.254Z,10.32
2023-03-22T04:47:27.688Z,10.23
2023-03-22T04:49:54.413Z,9.82
2023-03-22T04:52:21.370Z,10.73
2023-03-22T04:54:51.891Z,10.02
2023-03-22T04:57:18.568Z,11.65
2023-03-22T04:59:47.613Z,9.38
2023-03-22T05:02:15.422Z,9.63
2023-03-22T05:04:43.609Z,9.90
2023-03-22T05:07:29.829Z,11.15
2023-03-22T05:09:58.715Z,9.45
2023-03-22T05:12:25.662Z,8.77
2023-03-22T05:15:12.299Z,10.00
2023-03-22T05:17:40.564Z,9.02
2023-03-22T05:20:09.938Z,8.93
2023-03-22T05:22:40.533Z,9.70
2023-03-22T05:25:08.910Z,8.73
2023-03-22T05:27:38.965Z,8.93
2023-03-22T05:30:21.962Z,8.13
2023-03-22T05:33:04.318Z,8.77
2023-03-22T05:35:37.542Z,8.27
2023-03-22T05:38:04.444Z,7.70
2023-03-22T05:40:33.642Z,8.20
2023-03-22T05:43:00.250Z,7.95
2023-03-22T05:45:27.700Z,8.68
2023-03-22T05:48:16.899Z,8.45
2023-03-22T05:50:43.549Z,8.90
2023-03-22T05:53:11.936Z,7.43
2023-03-22T05:55:57.657Z,7.82
2023-03-22T05:58:24.170Z,7.88
2023-03-22T06:00:52.083Z,7.35
2023-03-22T06:03:39.157Z,7.18
2023-03-22T06:06:13.782Z,6.90
2023-03-22T06:08:47.388Z,7.38
2023-03-22T06:11:13.853Z,6.90
2023-03-22T06:13:40.371Z,6.70
2023-03-22T06:16:08.319Z,7.20
2023-03-22T06:18:34.742Z,6.32
2023-03-22T06:21:06.710Z,6.20
2023-03-22T06:23:33.158Z,6.78
2023-03-22T06:25:59.805Z,7.20
2023-03-22T06:28:29.739Z,6.22
2023-03-22T06:30:58.371Z,5.35
2023-03-22T06:33:37.259Z,6.43
2023-03-22T06:36:20.004Z,5.72
2023-03-22T06:39:05.050Z,6.53
2023-03-22T06:41:31.533Z,5.50
2023-03-22T06:43:57.977Z,4.72
2023-03-22T06:46:37.613Z,5.18
2023-03-22T06:49:11.918Z,5.10
2023-03-22T06:51:38.330Z,4.68
2023-03-22T06:54:04.734Z,5.03
2023-03-22T06:56:31.161Z,5.20
2023-03-22T06:58:58.380Z,5.35
2023-03-22T07:01:25.410Z,4.72
2023-03-22T07:03:51.868Z,3.75
2023-03-22T07:06:21.521Z,4.53
2023-03-22T07:08:51.942Z,4.43
2023-03-22T07:11:22.956Z,3.83
2023-03-22T07:13:56.590Z,3.78
2023-03-22T07:16:23.025Z,4.00
2023-03-22T07:18:52.602Z,3.90
2023-03-22T07:21:19.318Z,3.70
2023-03-22T07:23:51.074Z,3.57
2023-03-22T07:26:19.477Z,4.80
2023-03-22T07:28:48.614Z,3.45
2023-03-22T07:31:15.576Z,2.92
2023-03-22T07:34:02.666Z,3.90
2023-03-22T07:36:32.393Z,3.30
2023-03-22T07:38:59.106Z,3.65
2023-03-22T07:41:32.450Z,2.90
2023-03-22T07:44:34.215Z,3.30
2023-03-22T07:47:27.220Z,3.50
2023-03-22T07:50:13.156Z,2.83
2023-03-22T07:52:40.263Z,3.25
2023-03-22T07:55:08.453Z,3.78
2023-03-22T07:57:35.733Z,2.92
2023-03-22T08:00:04.700Z,3.10
2023-03-22T08:02:51.345Z,2.83
2023-03-22T08:05:39.721Z,2.90
2023-03-22T08:08:06.482Z,2.75
2023-03-22T08:10:32.949Z,3.33
2023-03-22T08:13:00.688Z,2.97
2023-03-22T08:15:27.171Z,3.17
2023-03-22T08:17:57.805Z,3.38
2023-03-22T08:20:31.762Z,3.35
2023-03-22T08:23:01.806Z,3.10
2023-03-22T08:26:06.687Z,2.92
2023-03-22T08:28:33.152Z,2.90
2023-03-22T08:30:59.473Z,3.22
2023-03-22T08:33:26.095Z,3.10
2023-03-22T08:35:52.788Z,3.45
2023-03-22T08:38:19.670Z,2.83
2023-03-22T08:40:49.877Z,2.55
2023-03-22T08:43:20.920Z,2.33
2023-03-22T08:45:47.622Z,3.00
2023-03-22T08:48:16.295Z,3.05
2023-03-22T08:51:07.625Z,3.17
2023-03-22T08:53:49.191Z,3.80
2023-03-22T08:56:37.873Z,3.45
2023-03-22T08:59:22.735Z,3.28
2023-03-22T09:02:09.826Z,3.38
2023-03-22T09:04:36.528Z,3.22
2023-03-22T09:07:03.042Z,3.90
2023-03-22T09:09:30.144Z,2.95
2023-03-22T09:11:58.057Z,2.70
2023-03-22T09:14:24.442Z,2.63
2023-03-22T09:16:51.788Z,2.88
2023-03-22T09:19:18.343Z,2.95
2023-03-22T09:21:44.745Z,4.10
2023-03-22T09:24:18.297Z,3.80
2023-03-22T09:26:49.658Z,3.40
2023-03-22T09:29:19.427Z,3.50
2023-03-22T09:31:48.751Z,3.53
2023-03-22T09:34:22.351Z,4.05
2023-03-22T09:36:48.843Z,3.05
2023-03-22T09:39:18.969Z,2.90
2023-03-22T09:41:54.842Z,3.70
2023-03-22T09:44:27.300Z,3.50
2023-03-22T09:46:55.050Z,4.13
2023-03-22T09:49:24.297Z,2.85
2023-03-22T09:51:51.772Z,3.00
2023-03-22T09:54:27.319Z,3.60
2023-03-22T09:57:14.000Z,3.65
2023-03-22T09:59:42.676Z,3.75
2023-03-22T10:02:19.860Z,3.13
2023-03-22T10:05:15.612Z,3.20
2023-03-22T10:07:53.355Z,3.20
2023-03-22T10:10:21.442Z,3.20
2023-03-22T10:13:05.348Z,3.05
2023-03-22T10:15:39.565Z,3.13
2023-03-22T10:18:12.583Z,3.70
2023-03-22T10:23:06.555Z,3.10
2023-03-22T10:25:35.399Z,3.58
2023-03-22T10:28:01.935Z,3.25
2023-03-22T10:30:33.145Z,3.00
2023-03-22T10:33:13.477Z,3.65
2023-03-22T10:35:40.955Z,3.35
2023-03-22T10:38:09.335Z,2.88
2023-03-22T10:40:36.546Z,2.88
2023-03-22T10:43:07.668Z,3.53
2023-03-22T10:45:34.893Z,3.00
2023-03-22T10:48:07.057Z,2.72
2023-03-22T10:50:37.986Z,2.83
2023-03-22T10:53:06.828Z,3.58
2023-03-22T10:55:39.000Z,3.38
2023-03-22T10:58:14.569Z,3.80
2023-03-22T11:00:49.178Z,3.03
2023-03-22T11:03:25.559Z,3.78
2023-03-22T11:05:58.723Z,3.15
2023-03-22T11:08:25.798Z,3.28
2023-03-22T11:10:55.436Z,3.05
2023-03-22T11:13:24.173Z,2.65
2023-03-22T11:16:02.401Z,3.03
2023-03-22T11:18:34.183Z,3.17
2023-03-22T11:21:06.965Z,3.67
2023-03-22T11:23:34.292Z,3.03
2023-03-22T11:26:06.213Z,2.42
2023-03-22T11:28:37.512Z,3.33
2023-03-22T11:31:08.725Z,2.78
2023-03-22T11:33:39.807Z,2.75
2023-03-22T11:36:17.332Z,2.95
2023-03-22T11:38:45.664Z,3.00
2023-03-22T11:41:22.209Z,2.70
2023-03-22T11:43:51.985Z,3.00
2023-03-22T11:46:22.720Z,2.73
2023-03-22T11:48:51.135Z,3.10
2023-03-22T11:51:27.675Z,2.80
2023-03-22T11:54:04.877Z,2.50
2023-03-22T11:56:31.707Z,2.65
2023-03-22T11:59:08.213Z,2.75
2023-03-22T12:01:40.343Z,2.83
2023-03-22T12:04:12.696Z,2.65
2023-03-22T12:06:48.946Z,2.63
2023-03-22T12:09:38.907Z,2.30
2023-03-22T12:12:08.523Z,2.75
2023-03-22T12:14:47.501Z,3.22
2023-03-22T12:17:24.157Z,2.63
2023-03-22T12:19:57.960Z,4.93
2023-03-22T12:22:33.304Z,2.75
2023-03-22T12:25:00.206Z,2.85
2023-03-22T12:27:28.471Z,2.58
2023-03-22T12:30:16.377Z,2.83
2023-03-22T12:32:49.219Z,2.78
2023-03-22T12:35:18.596Z,2.40
2023-03-22T12:37:48.017Z,4.43
2023-03-22T12:40:22.992Z,3.58
2023-03-22T12:42:51.861Z,2.40
2023-03-22T12:45:24.917Z,2.45
2023-03-22T12:47:53.876Z,2.67
2023-03-22T12:50:21.713Z,3.15
2023-03-22T12:52:49.452Z,2.78
2023-03-22T12:55:37.934Z,2.53
2023-03-22T12:58:16.499Z,3.40
2023-03-22T13:00:46.399Z,3.88
2023-03-22T13:03:16.108Z,2.75
2023-03-22T13:05:44.535Z,2.58
2023-03-22T13:08:13.014Z,2.67
2023-03-22T13:10:49.068Z,2.60
2023-03-22T13:13:22.070Z,2.42
2023-03-22T13:16:06.967Z,2.55
2023-03-22T13:18:36.437Z,3.30
2023-03-22T13:21:22.280Z,2.85
2023-03-22T13:24:08.656Z,2.30
2023-03-22T13:26:37.880Z,2.60
2023-03-22T13:29:18.575Z,2.40
2023-03-22T13:31:51.162Z,2.75
2023-03-22T13:36:57.182Z,2.42
2023-03-22T13:39:25.429Z,2.35
2023-03-22T13:42:22.196Z,3.90
2023-03-22T13:45:03.749Z,2.67
2023-03-22T13:47:35.251Z,3.30
2023-03-22T13:50:14.603Z,3.90
2023-03-22T13:52:47.444Z,3.08
2023-03-22T13:55:18.505Z,2.95
2023-03-22T13:57:47.960Z,2.95
2023-03-22T14:00:35.265Z,2.80
2023-03-22T14:03:04.181Z,3.40
2023-03-22T14:05:32.144Z,3.20
2023-03-22T14:08:00.105Z,2.80
2023-03-22T14:10:32.386Z,3.50
2023-03-22T14:12:58.677Z,3.28
2023-03-22T14:15:45.086Z,3.28
2023-03-22T14:18:17.669Z,2.80
2023-03-22T14:20:44.478Z,3.60
